createdAt,value
2018-10-17T00:02:10.509Z,16.50
2018-10-17T00:04:38.623Z,16.40
2018-10-17T00:07:06.918Z,16.30
2018-10-17T00:09:35.004Z,16.10
2018-10-17T00:12:03.189Z,16.00
2018-10-17T00:14:31.324Z,16.00
2018-10-17T00:16:59.546Z,15.80
2018-10-17T00:19:27.669Z,15.80
2018-10-17T00:21:55.980Z,15.60
2018-10-17T00:24:24.219Z,15.80
2018-10-17T00:26:52.329Z,15.70
2018-10-17T00:29:20.496Z,15.40
2018-10-17T00:31:48.577Z,15.50
2018-10-17T00:34:16.712Z,15.30
2018-10-17T00:36:45.085Z,15.30
2018-10-17T00:39:13.209Z,15.30
2018-10-17T00:41:41.275Z,15.30
2018-10-17T00:44:09.461Z,15.00
2018-10-17T00:46:37.663Z,14.90
2018-10-17T00:49:06.000Z,15.00
2018-10-17T00:51:34.047Z,15.20
2018-10-17T00:54:02.215Z,15.20
2018-10-17T00:56:30.308Z,15.10
2018-10-17T00:59:10.634Z,15.20
2018-10-17T01:01:39.078Z,15.40
2018-10-17T01:04:07.558Z,15.10
2018-10-17T01:06:36.090Z,15.00
2018-10-17T01:09:08.418Z,14.80
2018-10-17T01:11:37.131Z,14.80
2018-10-17T01:14:05.794Z,14.80
2018-10-17T01:16:33.979Z,14.90
2018-10-17T01:19:02.772Z,15.20
2018-10-17T01:21:31.174Z,15.30
2018-10-17T01:23:59.342Z,15.10
2018-10-17T01:26:27.472Z,14.90
2018-10-17T01:28:55.596Z,15.00
2018-10-17T01:31:23.583Z,14.90
2018-10-17T01:33:51.714Z,14.80
2018-10-17T01:36:19.858Z,14.80
2018-10-17T01:38:47.940Z,15.10
2018-10-17T01:41:16.148Z,15.00
2018-10-17T01:43:44.129Z,15.10
2018-10-17T01:46:12.300Z,15.10
2018-10-17T01:48:40.450Z,14.80
2018-10-17T01:51:08.635Z,15.00
2018-10-17T01:53:36.743Z,14.90
2018-10-17T01:56:05.202Z,14.70
2018-10-17T01:58:33.229Z,14.70
2018-10-17T02:01:01.297Z,14.50
2018-10-17T02:03:29.367Z,14.10
2018-10-17T02:05:57.484Z,13.90
2018-10-17T02:08:25.621Z,14.00
2018-10-17T02:10:53.786Z,14.20
2018-10-17T02:13:22.304Z,14.10
2018-10-17T02:15:52.119Z,14.20
2018-10-17T02:18:20.565Z,14.20
2018-10-17T02:20:49.424Z,14.20
2018-10-17T02:23:17.550Z,14.00
2018-10-17T02:25:45.657Z,14.00
2018-10-17T02:28:13.812Z,14.10
2018-10-17T02:30:41.968Z,13.90
2018-10-17T02:33:10.000Z,13.50
2018-10-17T02:35:40.671Z,13.80
2018-10-17T02:38:09.056Z,13.90
2018-10-17T02:40:37.133Z,13.50
2018-10-17T02:43:05.727Z,13.50
2018-10-17T02:45:34.195Z,13.60
2018-10-17T02:48:02.388Z,13.30
2018-10-17T02:50:31.102Z,13.40
2018-10-17T02:52:59.295Z,13.10
2018-10-17T02:55:27.362Z,12.90
2018-10-17T02:57:55.857Z,13.10
2018-10-17T03:00:24.430Z,13.10
2018-10-17T03:02:52.880Z,13.10
2018-10-17T03:05:21.188Z,12.90
2018-10-17T03:07:49.253Z,13.00
2018-10-17T03:10:17.390Z,13.00
2018-10-17T03:12:45.982Z,13.00
2018-10-17T03:15:14.168Z,12.80
2018-10-17T03:17:42.649Z,12.80
2018-10-17T03:20:11.239Z,12.70
2018-10-17T03:22:39.824Z,12.70
2018-10-17T03:25:08.873Z,12.70
2018-10-17T03:27:37.576Z,12.80
2018-10-17T03:30:05.835Z,12.80
2018-10-17T03:32:34.708Z,12.80
2018-10-17T03:35:03.233Z,12.60
2018-10-17T03:37:31.279Z,12.60
2018-10-17T03:40:00.014Z,12.70
2018-10-17T03:42:28.122Z,12.70
2018-10-17T03:44:56.261Z,12.70
2018-10-17T03:47:24.369Z,12.70
2018-10-17T03:49:52.998Z,12.70
2018-10-17T03:52:21.021Z,12.70
2018-10-17T03:54:49.182Z,12.80
2018-10-17T03:57:17.729Z,12.80
2018-10-17T03:59:46.484Z,12.80
2018-10-17T04:02:14.801Z,12.80
2018-10-17T04:04:42.980Z,13.00
2018-10-17T04:07:11.144Z,13.00
2018-10-17T04:09:39.175Z,13.00
2018-10-17T04:12:07.382Z,13.00
2018-10-17T04:14:35.440Z,13.10
2018-10-17T04:17:03.724Z,13.00
2018-10-17T04:19:31.996Z,13.10
2018-10-17T04:22:00.192Z,13.00
2018-10-17T04:24:28.450Z,13.00
2018-10-17T04:26:56.623Z,13.10
2018-10-17T04:29:24.802Z,13.20
2018-10-17T04:31:52.999Z,13.10
2018-10-17T04:34:21.181Z,12.80
2018-10-17T04:36:49.305Z,12.80
2018-10-17T04:39:17.535Z,12.90
2018-10-17T04:41:45.601Z,12.60
2018-10-17T04:44:13.625Z,12.70
2018-10-17T04:46:41.825Z,12.80
2018-10-17T04:49:10.069Z,12.70
2018-10-17T04:51:38.112Z,12.60
2018-10-17T04:54:06.524Z,12.50
2018-10-17T04:56:34.923Z,12.50
2018-10-17T04:59:03.205Z,12.30
2018-10-17T05:01:31.501Z,12.10
2018-10-17T05:03:59.847Z,12.20
2018-10-17T05:06:28.086Z,12.50
2018-10-17T05:08:56.122Z,12.40
2018-10-17T05:11:24.324Z,12.50
2018-10-17T05:13:53.401Z,12.60
2018-10-17T05:16:22.019Z,12.50
2018-10-17T05:18:50.195Z,12.60
2018-10-17T05:21:18.469Z,12.50
2018-10-17T05:23:46.747Z,12.30
2018-10-17T05:26:14.920Z,12.20
2018-10-17T05:28:43.124Z,12.30
2018-10-17T05:31:11.499Z,12.30
2018-10-17T05:33:39.581Z,12.30
2018-10-17T05:36:07.780Z,12.20
2018-10-17T05:38:35.995Z,11.90
2018-10-17T05:41:04.745Z,11.90
2018-10-17T05:43:32.895Z,12.00
2018-10-17T05:46:01.148Z,12.00
2018-10-17T05:48:29.307Z,12.00
2018-10-17T05:50:57.626Z,12.10
2018-10-17T05:53:25.818Z,12.10
2018-10-17T05:55:55.245Z,12.00
2018-10-17T05:58:23.696Z,12.10
2018-10-17T06:00:52.162Z,12.20
2018-10-17T06:03:20.533Z,12.20
2018-10-17T06:05:49.055Z,12.10
2018-10-17T06:08:17.243Z,12.10
2018-10-17T06:10:46.116Z,11.90
2018-10-17T06:13:16.219Z,12.30
2018-10-17T06:15:44.478Z,12.00
2018-10-17T06:18:12.633Z,12.20
2018-10-17T06:20:41.189Z,12.40
2018-10-17T06:23:10.095Z,12.40
2018-10-17T06:25:38.250Z,12.20
2018-10-17T06:28:07.370Z,12.30
2018-10-17T06:30:37.071Z,12.70
2018-10-17T06:33:05.038Z,12.80
2018-10-17T06:35:33.888Z,12.90
2018-10-17T06:38:02.296Z,12.90
2018-10-17T06:40:31.159Z,13.10
2018-10-17T06:42:59.645Z,12.80
2018-10-17T06:45:29.431Z,12.70
2018-10-17T06:47:58.104Z,12.70
2018-10-17T06:50:26.664Z,12.80
2018-10-17T06:52:54.988Z,13.10
2018-10-17T06:55:23.480Z,13.20
2018-10-17T06:57:51.707Z,13.10
2018-10-17T07:00:19.917Z,13.40
2018-10-17T07:02:48.396Z,13.80
2018-10-17T07:05:16.745Z,13.80
2018-10-17T07:07:44.951Z,14.00
2018-10-17T07:10:13.273Z,13.70
2018-10-17T07:12:41.675Z,13.40
2018-10-17T07:15:09.997Z,14.20
2018-10-17T07:17:38.527Z,14.00
2018-10-17T07:20:08.046Z,14.60
2018-10-17T07:22:36.261Z,14.30
2018-10-17T07:25:04.702Z,14.30
2018-10-17T07:27:32.847Z,14.30
2018-10-17T07:30:01.300Z,14.10
2018-10-17T07:32:29.671Z,14.80
2018-10-17T07:34:57.819Z,14.40
2018-10-17T07:37:26.220Z,15.10
2018-10-17T07:39:54.352Z,15.10
2018-10-17T07:42:22.532Z,15.20
2018-10-17T07:44:50.896Z,15.10
2018-10-17T07:47:19.016Z,15.20
2018-10-17T07:49:47.438Z,15.20
2018-10-17T07:52:15.520Z,15.50
2018-10-17T07:54:44.032Z,15.70
2018-10-17T07:57:12.375Z,15.60
2018-10-17T07:59:40.791Z,16.00
2018-10-17T08:02:08.933Z,15.90
2018-10-17T08:04:37.184Z,16.20
2018-10-17T08:07:05.764Z,16.20
2018-10-17T08:09:34.024Z,16.70
2018-10-17T08:12:02.368Z,16.90
2018-10-17T08:14:30.563Z,16.60
2018-10-17T08:16:58.876Z,16.50
2018-10-17T08:19:27.050Z,16.30
2018-10-17T08:21:55.265Z,17.20
2018-10-17T08:24:23.605Z,17.60
2018-10-17T08:26:51.949Z,16.90
2018-10-17T08:29:20.137Z,16.90
2018-10-17T08:31:48.364Z,17.40
2018-10-17T08:34:16.600Z,17.80
2018-10-17T08:36:45.709Z,17.20
2018-10-17T08:39:13.992Z,17.40
2018-10-17T08:41:42.361Z,17.20
2018-10-17T08:44:10.688Z,17.10
2018-10-17T08:46:39.002Z,17.80
2018-10-17T08:49:07.202Z,18.80
2018-10-17T08:51:35.503Z,18.50
2018-10-17T08:54:04.098Z,18.50
2018-10-17T08:56:32.847Z,17.70
2018-10-17T08:59:01.123Z,17.80
2018-10-17T09:01:29.353Z,18.10
2018-10-17T09:04:02.780Z,17.50
2018-10-17T09:06:33.865Z,18.30
2018-10-17T09:09:02.213Z,17.90
2018-10-17T09:11:39.362Z,17.90
2018-10-17T09:14:14.756Z,17.80
2018-10-17T09:16:43.123Z,18.00
2018-10-17T09:19:11.322Z,18.30
2018-10-17T09:21:39.705Z,19.10
2018-10-17T09:24:07.824Z,19.20
2018-10-17T09:26:36.286Z,19.70
2018-10-17T09:29:04.680Z,19.50
2018-10-17T09:31:33.005Z,19.90
2018-10-17T09:34:05.665Z,20.10
2018-10-17T09:36:33.991Z,19.70
2018-10-17T09:39:02.292Z,20.10
2018-10-17T09:41:30.633Z,19.60
2018-10-17T09:43:58.942Z,20.10
2018-10-17T09:46:27.253Z,20.00
2018-10-17T09:48:55.515Z,20.10
2018-10-17T09:51:23.660Z,20.40
2018-10-17T09:53:51.980Z,19.00
2018-10-17T09:56:20.233Z,19.40
2018-10-17T09:58:48.748Z,19.70
2018-10-17T10:01:22.475Z,19.90
2018-10-17T10:03:50.888Z,19.60
2018-10-17T10:06:19.189Z,20.10
2018-10-17T10:08:47.574Z,20.40
2018-10-17T10:11:15.806Z,20.10
2018-10-17T10:13:44.039Z,20.40
2018-10-17T10:16:12.198Z,21.10
2018-10-17T10:18:40.319Z,21.00
2018-10-17T10:21:08.681Z,20.90
2018-10-17T10:23:36.827Z,20.60
2018-10-17T10:26:05.466Z,21.30
2018-10-17T10:28:33.779Z,20.40
2018-10-17T10:31:01.904Z,20.00
2018-10-17T10:33:30.146Z,20.60
2018-10-17T10:35:58.360Z,20.90
2018-10-17T10:38:26.581Z,21.40
2018-10-17T10:40:54.756Z,21.70
2018-10-17T10:43:23.042Z,21.90
2018-10-17T10:45:51.301Z,21.50
2018-10-17T10:48:19.696Z,21.90
2018-10-17T10:50:47.889Z,21.50
2018-10-17T10:53:16.251Z,21.20
2018-10-17T10:55:44.503Z,21.40
2018-10-17T10:58:12.935Z,22.20
2018-10-17T11:00:41.051Z,22.00
2018-10-17T11:03:09.407Z,21.60
2018-10-17T11:05:37.727Z,21.50
2018-10-17T11:08:05.798Z,21.60
2018-10-17T11:10:33.990Z,20.80
2018-10-17T11:13:02.329Z,21.50
2018-10-17T11:15:30.585Z,21.50
2018-10-17T11:17:58.765Z,21.90
2018-10-17T11:20:26.940Z,21.90
2018-10-17T11:23:02.417Z,22.40
2018-10-17T11:25:30.673Z,21.60
2018-10-17T11:27:59.049Z,21.50
2018-10-17T11:30:27.220Z,22.10
2018-10-17T11:32:55.628Z,22.70
2018-10-17T11:35:24.608Z,23.30
2018-10-17T11:37:52.799Z,23.60
2018-10-17T11:40:21.328Z,24.10
2018-10-17T11:42:49.809Z,22.20
2018-10-17T11:45:18.128Z,23.40
2018-10-17T11:47:46.580Z,23.80
2018-10-17T11:50:14.830Z,23.80
2018-10-17T11:52:43.167Z,23.90
2018-10-17T11:58:00.756Z,24.80
2018-10-17T12:00:28.985Z,24.10
2018-10-17T12:02:57.822Z,24.60
2018-10-17T12:05:26.624Z,24.30
2018-10-17T12:07:54.401Z,23.90
2018-10-17T12:10:22.839Z,24.40
2018-10-17T12:12:51.373Z,24.00
2018-10-17T12:15:19.742Z,23.40
2018-10-17T12:17:47.997Z,22.80
2018-10-17T12:20:16.230Z,23.80
2018-10-17T12:22:46.310Z,24.60
2018-10-17T12:25:15.101Z,24.60
2018-10-17T12:27:43.669Z,24.20
2018-10-17T12:30:13.538Z,25.30
2018-10-17T12:32:41.865Z,24.90
2018-10-17T12:35:10.692Z,24.20
2018-10-17T12:37:39.095Z,24.10
2018-10-17T12:40:09.657Z,24.90
2018-10-17T12:42:37.709Z,25.40
2018-10-17T12:45:06.440Z,24.00
2018-10-17T12:47:34.920Z,25.30
2018-10-17T12:50:03.568Z,25.60
2018-10-17T12:52:31.957Z,24.30
2018-10-17T12:55:00.320Z,24.40
2018-10-17T12:57:28.888Z,24.70
2018-10-17T12:59:58.042Z,24.90
2018-10-17T13:02:27.301Z,24.80
2018-10-17T13:04:55.641Z,25.60
2018-10-17T13:07:23.783Z,25.10
2018-10-17T13:09:52.059Z,24.90
2018-10-17T13:12:20.801Z,24.20
2018-10-17T13:14:49.491Z,24.50
2018-10-17T13:17:17.877Z,24.40
2018-10-17T13:19:46.610Z,24.30
2018-10-17T13:22:15.191Z,24.40
2018-10-17T13:24:44.459Z,23.90
2018-10-17T13:27:12.796Z,24.70
2018-10-17T13:29:41.005Z,24.00
2018-10-17T13:32:10.485Z,25.10
2018-10-17T13:34:39.580Z,25.30
2018-10-17T13:37:08.521Z,26.00
2018-10-17T13:39:38.348Z,26.30
2018-10-17T13:45:37.008Z,25.70
2018-10-17T13:48:06.134Z,26.00
2018-10-17T13:50:35.683Z,26.00
2018-10-17T13:53:04.261Z,25.10
2018-10-17T13:55:33.453Z,24.00
2018-10-17T13:58:01.948Z,24.90
2018-10-17T14:00:44.961Z,25.20
2018-10-17T14:03:13.382Z,24.40
2018-10-17T14:08:51.630Z,24.20
2018-10-17T14:11:24.689Z,24.80
2018-10-17T14:13:53.041Z,25.80
2018-10-17T14:16:22.637Z,26.20
2018-10-17T14:21:26.219Z,25.20
2018-10-17T14:24:19.634Z,25.40
2018-10-17T14:26:49.123Z,25.80
2018-10-17T14:29:18.928Z,24.10
2018-10-17T14:31:47.152Z,24.70
2018-10-17T14:34:16.284Z,24.90
2018-10-17T14:36:45.197Z,24.10
2018-10-17T14:42:13.525Z,24.30
2018-10-17T14:44:43.652Z,23.90
2018-10-17T14:47:12.055Z,23.90
2018-10-17T14:49:52.499Z,24.50
2018-10-17T14:52:39.680Z,25.00
2018-10-17T14:55:09.925Z,24.80
2018-10-17T14:57:39.032Z,25.10
2018-10-17T15:03:15.192Z,24.60
2018-10-17T15:15:14.062Z,25.00
2018-10-17T15:17:42.776Z,25.00
2018-10-17T15:20:12.632Z,25.00
2018-10-17T15:22:42.636Z,24.50
2018-10-17T15:25:14.071Z,24.00
2018-10-17T15:27:43.481Z,24.40
2018-10-17T15:30:13.238Z,24.70
2018-10-17T15:32:42.765Z,24.80
2018-10-17T15:38:01.870Z,24.70
2018-10-17T15:40:30.865Z,24.80
2018-10-17T15:46:07.772Z,24.40
2018-10-17T15:48:37.485Z,24.30
2018-10-17T15:51:07.533Z,23.90
2018-10-17T15:53:36.921Z,23.70
2018-10-17T15:56:07.003Z,23.50
2018-10-17T15:58:36.877Z,23.20
2018-10-17T16:01:05.340Z,23.30
2018-10-17T16:03:35.273Z,23.10
2018-10-17T16:06:03.771Z,23.10
2018-10-17T16:08:33.559Z,22.90
2018-10-17T16:11:02.131Z,22.70
2018-10-17T16:13:30.578Z,22.60
2018-10-17T16:15:59.712Z,22.40
2018-10-17T16:21:09.424Z,22.10
2018-10-17T16:23:37.839Z,21.80
2018-10-17T16:26:06.229Z,21.70
2018-10-17T16:28:34.741Z,21.70
2018-10-17T16:31:03.056Z,21.70
2018-10-17T16:33:32.142Z,21.50
2018-10-17T16:36:02.108Z,21.40
2018-10-17T16:38:31.535Z,21.20
2018-10-17T16:41:00.006Z,21.20
2018-10-17T16:43:28.498Z,21.00
2018-10-17T16:45:57.624Z,20.80
2018-10-17T16:48:28.499Z,20.50
2018-10-17T16:50:56.746Z,20.40
2018-10-17T16:53:27.038Z,20.40
2018-10-17T16:55:56.403Z,20.40
2018-10-17T16:58:25.002Z,20.40
2018-10-17T17:00:53.328Z,20.50
2018-10-17T17:03:21.587Z,20.50
2018-10-17T17:05:50.666Z,20.30
2018-10-17T17:08:19.019Z,20.00
2018-10-17T17:10:47.746Z,19.90
2018-10-17T17:13:16.033Z,20.00
2018-10-17T17:15:44.284Z,19.80
2018-10-17T17:18:12.729Z,19.90
2018-10-17T17:20:42.324Z,19.80
2018-10-17T17:23:11.294Z,19.70
2018-10-17T17:25:39.606Z,19.60
2018-10-17T17:28:07.877Z,19.40
2018-10-17T17:30:36.263Z,19.40
2018-10-17T17:33:04.715Z,19.30
2018-10-17T17:35:33.736Z,19.20
2018-10-17T17:38:01.913Z,19.00
2018-10-17T17:40:30.556Z,19.10
2018-10-17T17:42:58.812Z,19.10
2018-10-17T17:45:27.151Z,19.00
2018-10-17T17:47:55.500Z,19.00
2018-10-17T17:50:23.843Z,18.90
2018-10-17T17:52:52.048Z,19.00
2018-10-17T17:55:20.621Z,19.00
2018-10-17T17:57:48.985Z,18.70
2018-10-17T18:00:17.515Z,18.90
2018-10-17T18:02:45.915Z,18.80
2018-10-17T18:05:14.442Z,18.80
2018-10-17T18:07:43.253Z,18.50
2018-10-17T18:10:11.748Z,18.40
2018-10-17T18:12:40.036Z,18.60
2018-10-17T18:15:08.653Z,18.40
2018-10-17T18:17:37.041Z,18.40
2018-10-17T18:20:06.110Z,18.40
2018-10-17T18:22:35.231Z,18.30
2018-10-17T18:25:03.825Z,18.40
2018-10-17T18:27:32.280Z,18.40
2018-10-17T18:30:00.631Z,18.30
2018-10-17T18:32:28.939Z,18.30
2018-10-17T18:34:57.331Z,18.10
2018-10-17T18:37:25.640Z,18.10
2018-10-17T18:39:53.975Z,18.20
2018-10-17T18:42:22.269Z,18.10
2018-10-17T18:44:50.458Z,18.10
2018-10-17T18:47:18.968Z,18.10
2018-10-17T18:49:47.287Z,18.00
2018-10-17T18:52:15.582Z,18.00
2018-10-17T18:54:44.047Z,17.90
2018-10-17T18:57:12.471Z,17.80
2018-10-17T18:59:40.842Z,17.70
2018-10-17T19:02:09.166Z,17.70
2018-10-17T19:04:37.633Z,17.70
2018-10-17T19:07:06.555Z,17.60
2018-10-17T19:09:34.937Z,17.70
2018-10-17T19:12:03.199Z,17.60
2018-10-17T19:14:31.517Z,17.40
2018-10-17T19:17:00.037Z,17.40
2018-10-17T19:19:28.326Z,17.10
2018-10-17T19:21:56.661Z,17.30
2018-10-17T19:24:25.132Z,17.10
2018-10-17T19:26:53.534Z,17.00
2018-10-17T19:29:21.940Z,16.90
2018-10-17T19:31:50.192Z,16.50
2018-10-17T19:34:18.444Z,16.50
2018-10-17T19:36:46.718Z,16.40
2018-10-17T19:39:15.093Z,17.00
2018-10-17T19:41:43.595Z,17.20
2018-10-17T19:44:11.904Z,17.00
2018-10-17T19:46:40.189Z,17.10
2018-10-17T19:49:08.530Z,17.20
2018-10-17T19:51:36.747Z,17.20
2018-10-17T19:54:05.661Z,17.10
2018-10-17T19:56:33.906Z,17.10
2018-10-17T19:59:02.394Z,17.00
2018-10-17T20:01:30.681Z,17.00
2018-10-17T20:03:58.991Z,17.00
2018-10-17T20:06:27.267Z,16.90
2018-10-17T20:08:55.606Z,16.70
2018-10-17T20:11:24.152Z,16.70
2018-10-17T20:13:52.387Z,16.70
2018-10-17T20:16:20.955Z,16.60
2018-10-17T20:18:49.136Z,16.70
2018-10-17T20:21:17.460Z,16.40
2018-10-17T20:23:45.666Z,16.40
2018-10-17T20:26:13.896Z,16.50
2018-10-17T20:28:42.080Z,16.50
2018-10-17T20:31:10.426Z,16.50
2018-10-17T20:33:38.672Z,16.50
2018-10-17T20:36:06.963Z,16.40
2018-10-17T20:38:35.229Z,16.30
2018-10-17T20:41:03.543Z,16.30
2018-10-17T20:43:31.832Z,16.20
2018-10-17T20:46:00.058Z,16.40
2018-10-17T20:48:28.301Z,16.40
2018-10-17T20:50:56.711Z,16.40
2018-10-17T20:53:25.346Z,16.30
2018-10-17T20:55:53.746Z,16.20
2018-10-17T20:58:22.038Z,16.10
2018-10-17T21:00:50.655Z,16.10
2018-10-17T21:03:18.869Z,16.00
2018-10-17T21:05:47.063Z,15.90
2018-10-17T21:08:15.477Z,16.00
2018-10-17T21:10:43.856Z,15.70
2018-10-17T21:13:12.141Z,15.60
2018-10-17T21:15:40.422Z,15.70
2018-10-17T21:18:08.763Z,15.80
2018-10-17T21:20:36.968Z,15.70
2018-10-17T21:23:05.340Z,15.50
2018-10-17T21:25:33.653Z,15.70
2018-10-17T21:28:01.784Z,15.80
2018-10-17T21:30:30.060Z,16.10
2018-10-17T21:32:58.201Z,16.00
2018-10-17T21:35:26.735Z,16.00
2018-10-17T21:37:55.036Z,16.20
2018-10-17T21:40:23.093Z,16.20
2018-10-17T21:42:51.361Z,15.60
2018-10-17T21:45:19.539Z,15.90
2018-10-17T21:47:47.734Z,15.80
2018-10-17T21:50:15.986Z,15.90
2018-10-17T21:52:44.507Z,15.60
2018-10-17T21:55:12.743Z,15.30
2018-10-17T21:57:40.965Z,15.30
2018-10-17T22:00:13.643Z,15.30
2018-10-17T22:02:42.234Z,15.10
2018-10-17T22:05:10.717Z,15.20
2018-10-17T22:07:38.942Z,15.30
2018-10-17T22:10:08.067Z,15.20
2018-10-17T22:12:36.809Z,14.90
2018-10-17T22:15:06.645Z,14.70
2018-10-17T22:17:34.929Z,14.70
2018-10-17T22:20:03.146Z,15.10
2018-10-17T22:22:31.348Z,15.00
2018-10-17T22:24:59.518Z,15.10
2018-10-17T22:27:27.792Z,15.10
2018-10-17T22:29:56.043Z,15.30
2018-10-17T22:32:24.441Z,15.20
2018-10-17T22:34:52.581Z,15.40
2018-10-17T22:37:20.740Z,15.40
2018-10-17T22:39:48.846Z,15.30
2018-10-17T22:42:17.027Z,15.50
2018-10-17T22:44:45.249Z,15.20
2018-10-17T22:47:13.465Z,15.40
2018-10-17T22:49:41.638Z,15.50
2018-10-17T22:52:09.800Z,15.40
2018-10-17T22:54:37.968Z,15.20
2018-10-17T22:57:06.119Z,15.10
2018-10-17T22:59:34.356Z,15.00
2018-10-17T23:02:02.566Z,14.80
2018-10-17T23:04:31.156Z,14.90
2018-10-17T23:06:59.288Z,15.10
2018-10-17T23:09:27.441Z,15.10
2018-10-17T23:11:56.036Z,15.00
2018-10-17T23:14:24.400Z,14.70
2018-10-17T23:16:52.892Z,14.50
2018-10-17T23:22:03.902Z,14.70
2018-10-17T23:24:32.059Z,14.60
2018-10-17T23:27:00.213Z,14.50
2018-10-17T23:29:29.009Z,14.40
2018-10-17T23:31:58.081Z,14.60
2018-10-17T23:34:51.520Z,14.70
2018-10-17T23:37:19.717Z,14.50
2018-10-17T23:39:47.940Z,14.60
2018-10-17T23:42:16.386Z,14.70
2018-10-17T23:44:44.567Z,14.80
2018-10-17T23:47:12.673Z,14.70
2018-10-17T23:49:40.917Z,14.60
2018-10-17T23:52:09.114Z,14.60
2018-10-17T23:54:37.888Z,14.10
2018-10-17T23:57:06.763Z,14.10
2018-10-17T23:59:34.922Z,14.10
